createdAt,value
2023-03-02T10:56:37.118Z,98749.91
2023-03-02T10:59:25.878Z,98745.23
2023-03-02T11:02:26.167Z,98740.14
2023-03-02T11:05:15.272Z,98729.75
2023-03-02T11:07:55.809Z,98728.05
2023-03-02T11:10:25.683Z,98723.67
2023-03-02T11:12:53.432Z,98724.73
2023-03-02T11:15:43.847Z,98721.16
2023-03-02T11:18:33.109Z,98713.38
2023-03-02T11:21:08.785Z,98711.08
2023-03-02T11:23:44.126Z,98702.67
2023-03-02T11:26:16.570Z,98697.55
2023-03-02T11:28:53.266Z,98696.27
2023-03-02T11:31:35.183Z,98691.50
2023-03-02T11:34:20.786Z,98693.19
2023-03-02T11:37:09.417Z,98688.64
2023-03-02T11:39:55.171Z,98683.20
2023-03-02T11:42:36.278Z,98683.89
2023-03-02T11:45:16.568Z,98678.86
2023-03-02T11:48:02.463Z,98676.73
2023-03-02T11:50:32.776Z,98671.54
2023-03-02T11:53:03.784Z,98668.93
2023-03-02T11:55:35.999Z,98667.53
2023-03-02T11:58:04.807Z,98664.87
2023-03-02T12:00:35.719Z,98663.23
2023-03-02T12:03:14.660Z,98654.40
2023-03-02T12:05:43.317Z,98655.19
2023-03-02T12:08:19.231Z,98653.33
2023-03-02T12:10:59.158Z,98652.80
2023-03-02T12:13:40.467Z,98652.42
2023-03-02T12:16:20.311Z,98646.68
2023-03-02T12:18:51.855Z,98638.52
2023-03-02T12:21:24.017Z,98643.27
2023-03-02T12:23:50.592Z,98638.83
2023-03-02T12:26:20.400Z,98643.03
2023-03-02T12:29:11.518Z,98638.94
2023-03-02T12:31:42.832Z,98634.14
2023-03-02T12:34:25.378Z,98634.33
2023-03-02T12:36:59.764Z,98632.62
2023-03-02T12:39:38.344Z,98623.77
2023-03-02T12:42:17.172Z,98623.23
2023-03-02T12:45:04.637Z,98616.11
2023-03-02T12:47:32.654Z,98614.70
2023-03-02T12:50:04.341Z,98609.02
2023-03-02T12:52:33.694Z,98608.80
2023-03-02T12:55:05.246Z,98608.63
2023-03-02T12:57:32.202Z,98607.86
2023-03-02T13:00:01.888Z,98605.67
2023-03-02T13:02:34.632Z,98600.59
2023-03-02T13:05:09.144Z,98592.98
2023-03-02T13:07:40.015Z,98588.42
2023-03-02T13:10:35.604Z,98581.39
2023-03-02T13:13:13.879Z,98579.66
2023-03-02T13:15:55.764Z,98576.67
2023-03-02T13:18:24.178Z,98572.34
2023-03-02T13:20:52.053Z,98570.70
2023-03-02T13:23:20.008Z,98570.55
2023-03-02T13:25:52.972Z,98567.66
2023-03-02T13:28:37.450Z,98561.95
2023-03-02T13:31:19.756Z,98561.63
2023-03-02T13:33:48.364Z,98558.98
2023-03-02T13:36:24.814Z,98557.61
2023-03-02T13:38:54.302Z,98554.09
2023-03-02T13:41:29.977Z,98552.21
2023-03-02T13:43:57.742Z,98546.30
2023-03-02T13:46:28.099Z,98545.94
2023-03-02T13:49:09.037Z,98549.16
2023-03-02T13:51:41.299Z,98543.93
2023-03-02T13:54:22.041Z,98540.77
2023-03-02T13:56:50.729Z,98540.23
2023-03-02T13:59:19.770Z,98539.14
2023-03-02T14:01:46.295Z,98536.61
2023-03-02T14:04:15.274Z,98536.96
2023-03-02T14:06:41.874Z,98531.45
2023-03-02T14:09:08.443Z,98531.87
2023-03-02T14:11:38.987Z,98528.23
2023-03-02T14:14:07.537Z,98522.27
2023-03-02T14:16:34.516Z,98525.48
2023-03-02T14:19:01.239Z,98518.31
2023-03-02T14:21:28.527Z,98519.15
2023-03-02T14:23:55.558Z,98515.67
2023-03-02T14:26:42.070Z,98512.59
2023-03-02T14:29:31.958Z,98509.08
2023-03-02T14:32:00.738Z,98503.75
2023-03-02T14:34:27.652Z,98502.94
2023-03-02T14:36:58.173Z,98498.55
2023-03-02T14:39:30.713Z,98498.36
2023-03-02T14:41:57.462Z,98494.55
2023-03-02T14:44:24.207Z,98490.36
2023-03-02T14:46:51.578Z,98488.23
2023-03-02T14:49:18.111Z,98487.15
2023-03-02T14:51:54.255Z,98489.14
2023-03-02T14:54:20.910Z,98490.25
2023-03-02T14:56:49.333Z,98489.72
2023-03-02T14:59:16.952Z,98488.25
2023-03-02T15:01:43.525Z,98489.77
2023-03-02T15:04:10.536Z,98488.50
2023-03-02T15:06:40.391Z,98485.73
2023-03-02T15:09:07.337Z,98486.55
2023-03-02T15:11:34.091Z,98489.36
2023-03-02T15:14:01.235Z,98489.39
2023-03-02T15:16:27.807Z,98489.38
2023-03-02T15:18:54.295Z,98491.45
2023-03-02T15:21:23.807Z,98495.56
2023-03-02T15:23:50.924Z,98493.89
2023-03-02T15:26:18.016Z,98492.06
2023-03-02T15:28:44.596Z,98493.13
2023-03-02T15:31:16.214Z,98494.61
2023-03-02T15:33:43.650Z,98493.69
2023-03-02T15:36:14.011Z,98493.12
2023-03-02T15:38:42.842Z,98492.27
2023-03-02T15:41:13.729Z,98490.21
2023-03-02T15:44:00.342Z,98495.70
2023-03-02T15:46:27.023Z,98498.30
2023-03-02T15:48:53.565Z,98496.64
2023-03-02T15:51:20.789Z,98499.19
2023-03-02T15:53:47.324Z,98505.13
2023-03-02T15:56:15.605Z,98505.80
2023-03-02T15:58:47.478Z,98506.72
2023-03-02T16:01:14.282Z,98506.23
2023-03-02T16:03:42.005Z,98506.29
2023-03-02T16:06:09.302Z,98511.25
2023-03-02T16:08:36.850Z,98511.85
2023-03-02T16:11:06.178Z,98512.33
2023-03-02T16:13:33.976Z,98517.75
2023-03-02T16:16:05.440Z,98513.73
2023-03-02T16:18:32.515Z,98511.08
2023-03-02T16:20:59.882Z,98512.65
2023-03-02T16:23:26.397Z,98512.33
2023-03-02T16:25:52.960Z,98512.88
2023-03-02T16:28:20.517Z,98516.82
2023-03-02T16:30:47.058Z,98514.48
2023-03-02T16:33:17.082Z,98514.11
2023-03-02T16:35:44.363Z,98514.55
2023-03-02T16:38:11.078Z,98514.59
2023-03-02T16:40:39.759Z,98518.43
2023-03-02T16:43:08.267Z,98520.48
2023-03-02T16:45:35.675Z,98519.25
2023-03-02T16:48:03.472Z,98523.30
2023-03-02T16:50:30.780Z,98532.66
2023-03-02T16:52:58.626Z,98532.75
2023-03-02T16:55:25.991Z,98536.91
2023-03-02T16:57:53.027Z,98538.81
2023-03-02T17:00:20.265Z,98541.76
2023-03-02T17:02:47.761Z,98541.72
2023-03-02T17:05:16.904Z,98543.73
2023-03-02T17:07:43.350Z,98550.00
2023-03-02T17:10:14.786Z,98556.73
2023-03-02T17:12:41.524Z,98555.77
2023-03-02T17:15:08.871Z,98555.32
2023-03-02T17:17:35.449Z,98553.68
2023-03-02T17:20:02.033Z,98556.31
2023-03-02T17:22:28.574Z,98558.13
2023-03-02T17:24:55.033Z,98561.80
2023-03-02T17:27:25.453Z,98560.48
2023-03-02T17:29:52.488Z,98562.95
2023-03-02T17:32:19.757Z,98563.55
2023-03-02T17:34:46.868Z,98567.36
2023-03-02T17:37:14.265Z,98566.65
2023-03-02T17:39:41.042Z,98567.52
2023-03-02T17:42:07.562Z,98573.13
2023-03-02T17:44:34.310Z,98573.54
2023-03-02T17:47:01.868Z,98579.73
2023-03-02T17:49:28.311Z,98581.60
2023-03-02T17:51:54.946Z,98579.64
2023-03-02T17:54:21.813Z,98580.91
2023-03-02T17:56:48.779Z,98579.08
2023-03-02T17:59:15.291Z,98581.75
2023-03-02T18:01:42.153Z,98581.46
2023-03-02T18:04:09.131Z,98576.54
2023-03-02T18:06:36.186Z,98577.55
2023-03-02T18:09:03.420Z,98574.75
2023-03-02T18:11:29.899Z,98573.82
2023-03-02T18:13:56.562Z,98573.67
2023-03-02T18:16:24.088Z,98572.00
2023-03-02T18:18:53.513Z,98573.80
2023-03-02T18:21:21.383Z,98575.46
2023-03-02T18:23:47.862Z,98576.09
2023-03-02T18:26:15.495Z,98577.86
2023-03-02T18:28:42.125Z,98576.20
2023-03-02T18:31:08.815Z,98579.47
2023-03-02T18:33:35.671Z,98576.59
2023-03-02T18:36:02.044Z,98575.75
2023-03-02T18:38:28.532Z,98577.66
2023-03-02T18:40:55.193Z,98578.72
2023-03-02T18:43:21.663Z,98579.48
2023-03-02T18:45:48.176Z,98582.14
2023-03-02T18:48:14.687Z,98586.80
2023-03-02T18:50:41.361Z,98589.91
2023-03-02T18:53:08.006Z,98590.83
2023-03-02T18:55:34.885Z,98589.83
2023-03-02T18:58:01.499Z,98593.30
2023-03-02T19:00:28.318Z,98591.83
2023-03-02T19:02:56.606Z,98586.23
2023-03-02T19:05:24.489Z,98588.13
2023-03-02T19:07:51.044Z,98589.18
2023-03-02T19:10:18.382Z,98597.05
2023-03-02T19:12:45.608Z,98596.77
2023-03-02T19:15:12.935Z,98598.19
2023-03-02T19:17:41.055Z,98597.88
2023-03-02T19:20:10.742Z,98601.48
2023-03-02T19:22:37.257Z,98597.42
2023-03-02T19:25:04.741Z,98596.27
2023-03-02T19:27:31.223Z,98598.84
2023-03-02T19:29:57.704Z,98596.30
2023-03-02T19:32:24.819Z,98600.06
2023-03-02T19:34:51.402Z,98599.88
2023-03-02T19:37:18.045Z,98604.15
2023-03-02T19:39:44.684Z,98603.63
2023-03-02T19:42:11.228Z,98603.30
2023-03-02T19:44:37.877Z,98604.50
2023-03-02T19:47:04.513Z,98601.94
2023-03-02T19:49:31.014Z,98599.05
2023-03-02T19:51:57.591Z,98604.67
2023-03-02T19:54:24.225Z,98605.02
2023-03-02T19:56:50.662Z,98603.66
2023-03-02T19:59:17.210Z,98604.36
2023-03-02T20:01:43.744Z,98603.34
2023-03-02T20:04:10.216Z,98599.59
2023-03-02T20:06:36.649Z,98603.16
2023-03-02T20:09:06.446Z,98599.77
2023-03-02T20:11:33.009Z,98597.54
2023-03-02T20:14:00.483Z,98600.10
2023-03-02T20:16:27.517Z,98598.75
2023-03-02T20:18:54.248Z,98598.25
2023-03-02T20:21:20.891Z,98592.98
2023-03-02T20:23:47.738Z,98592.33
2023-03-02T20:26:14.486Z,98591.31
2023-03-02T20:28:41.208Z,98589.60
2023-03-02T20:31:10.481Z,98586.73
2023-03-02T20:33:46.186Z,98585.71
2023-03-02T20:36:15.829Z,98581.98
2023-03-02T20:38:48.392Z,98582.48
2023-03-02T20:41:16.150Z,98583.84
2023-03-02T20:43:43.607Z,98584.01
2023-03-02T20:46:17.165Z,98584.02
2023-03-02T20:48:43.806Z,98582.98
2023-03-02T20:51:10.441Z,98580.95
2023-03-02T20:53:36.905Z,98578.23
2023-03-02T20:56:03.698Z,98571.60
2023-03-02T20:58:30.336Z,98568.02
2023-03-02T21:00:56.784Z,98570.07
2023-03-02T21:03:23.420Z,98569.72
2023-03-02T21:05:50.170Z,98567.52
2023-03-02T21:08:16.848Z,98561.06
2023-03-02T21:10:43.954Z,98560.71
2023-03-02T21:13:10.986Z,98557.33
2023-03-02T21:15:38.985Z,98553.41
2023-03-02T21:18:05.545Z,98553.40
2023-03-02T21:20:34.017Z,98551.87
2023-03-02T21:23:00.652Z,98549.48
2023-03-02T21:25:32.140Z,98549.30
2023-03-02T21:27:58.745Z,98546.07
2023-03-02T21:30:28.773Z,98547.26
2023-03-02T21:32:55.627Z,98551.51
2023-03-02T21:35:23.286Z,98553.70
2023-03-02T21:37:53.626Z,98553.69
2023-03-02T21:40:30.808Z,98551.98
2023-03-02T21:42:58.571Z,98550.80
2023-03-02T21:45:25.224Z,98550.95
2023-03-02T21:47:52.141Z,98548.58
2023-03-02T21:50:23.284Z,98548.74
2023-03-02T21:52:49.769Z,98546.36
2023-03-02T21:55:16.496Z,98550.60
2023-03-02T21:57:43.450Z,98546.04
2023-03-02T22:00:20.624Z,98546.88
2023-03-02T22:02:47.357Z,98546.18
2023-03-02T22:05:13.824Z,98546.86
2023-03-02T22:07:40.298Z,98547.34
2023-03-02T22:10:07.790Z,98548.69
2023-03-02T22:12:34.238Z,98544.95
2023-03-02T22:15:00.867Z,98546.48
2023-03-02T22:17:28.341Z,98547.17
2023-03-02T22:19:54.754Z,98547.52
2023-03-02T22:22:28.423Z,98544.98
2023-03-02T22:24:54.957Z,98545.14
2023-03-02T22:27:25.994Z,98541.94
2023-03-02T22:29:55.405Z,98535.48
2023-03-02T22:32:28.284Z,98533.27
2023-03-02T22:34:57.596Z,98531.41
2023-03-02T22:37:27.096Z,98530.54
2023-03-02T22:39:56.613Z,98529.83
2023-03-02T22:42:26.273Z,98532.87
2023-03-02T22:45:06.807Z,98531.33
2023-03-02T22:47:36.573Z,98531.45
2023-03-02T22:50:21.408Z,98530.09
2023-03-02T22:52:48.190Z,98527.91
2023-03-02T22:55:44.021Z,98527.39
2023-03-02T22:58:29.246Z,98524.15
2023-03-02T23:00:59.949Z,98523.64
2023-03-02T23:03:37.552Z,98525.34
2023-03-02T23:06:22.257Z,98523.44
2023-03-02T23:08:49.517Z,98521.20
2023-03-02T23:11:19.690Z,98514.06
2023-03-02T23:13:47.108Z,98516.59
2023-03-02T23:16:28.916Z,98515.75
2023-03-02T23:18:57.796Z,98512.54
2023-03-02T23:21:28.509Z,98507.95
2023-03-02T23:23:55.598Z,98507.27
2023-03-02T23:26:22.233Z,98504.71
2023-03-02T23:28:50.618Z,98504.16
2023-03-02T23:31:17.646Z,98502.79
2023-03-02T23:33:45.028Z,98498.18
2023-03-02T23:36:11.946Z,98498.35
2023-03-02T23:38:38.578Z,98496.66
2023-03-02T23:41:05.873Z,98493.27
2023-03-02T23:43:32.316Z,98488.87
2023-03-02T23:45:58.994Z,98489.20
2023-03-02T23:48:25.596Z,98485.47
2023-03-02T23:50:52.648Z,98485.48
2023-03-02T23:53:19.563Z,98486.82
2023-03-02T23:55:51.549Z,98485.98
2023-03-02T23:58:18.468Z,98485.48
